createdAt,value
2022-08-07T00:00:32.068Z,36.49
2022-08-07T00:03:36.566Z,36.65
2022-08-07T00:06:51.130Z,36.46
2022-08-07T00:10:04.872Z,36.63
2022-08-07T00:13:25.533Z,36.30
2022-08-07T00:16:28.296Z,36.57
2022-08-07T00:20:00.380Z,36.59
2022-08-07T00:22:52.792Z,36.50
2022-08-07T00:26:00.060Z,36.67
2022-08-07T00:29:03.316Z,36.50
2022-08-07T00:32:07.619Z,36.87
2022-08-07T00:35:09.811Z,37.14
2022-08-07T00:38:11.252Z,36.53
2022-08-07T00:41:15.285Z,36.75
2022-08-07T00:44:17.180Z,37.21
2022-08-07T00:48:07.951Z,36.79
2022-08-07T00:50:46.297Z,37.07
2022-08-07T00:53:55.833Z,37.06
2022-08-07T00:56:57.870Z,37.25
2022-08-07T00:59:59.674Z,37.29
2022-08-07T01:03:01.307Z,37.14
2022-08-07T01:06:03.180Z,37.47
2022-08-07T01:09:05.352Z,37.39
2022-08-07T01:12:29.610Z,37.76
2022-08-07T01:15:35.692Z,37.56
2022-08-07T01:18:55.930Z,37.98
2022-08-07T01:22:00.077Z,37.90
2022-08-07T01:25:40.037Z,37.57
2022-08-07T01:28:33.984Z,37.71
2022-08-07T01:31:41.584Z,37.79
2022-08-07T01:34:47.201Z,37.88
2022-08-07T01:37:49.416Z,37.71
2022-08-07T01:40:59.330Z,37.92
2022-08-07T01:44:02.341Z,38.34
2022-08-07T01:47:14.450Z,39.15
2022-08-07T01:50:31.146Z,38.87
2022-08-07T01:54:12.806Z,38.94
2022-08-07T01:57:06.868Z,38.73
2022-08-07T02:00:13.681Z,38.25
2022-08-07T02:03:26.303Z,38.07
2022-08-07T02:06:34.126Z,38.10
2022-08-07T02:09:52.967Z,38.21
2022-08-07T02:12:59.825Z,38.41
2022-08-07T02:16:11.793Z,38.74
2022-08-07T02:20:06.624Z,39.21
2022-08-07T02:22:41.058Z,39.31
2022-08-07T02:26:31.623Z,39.42
2022-08-07T02:29:13.635Z,39.36
2022-08-07T02:32:18.541Z,39.64
2022-08-07T02:36:30.864Z,40.91
2022-08-07T02:38:50.856Z,41.61
2022-08-07T02:42:01.662Z,41.31
2022-08-07T02:45:57.742Z,41.63
2022-08-07T02:48:30.503Z,41.00
2022-08-07T02:51:42.785Z,41.59
2022-08-07T02:54:56.335Z,41.62
2022-08-07T02:58:03.985Z,41.83
2022-08-07T03:01:15.922Z,41.64
2022-08-07T03:04:22.992Z,41.29
2022-08-07T03:07:43.201Z,41.55
2022-08-07T03:10:50.396Z,41.88
2022-08-07T03:14:01.762Z,41.24
2022-08-07T03:17:05.559Z,41.47
2022-08-07T03:20:12.171Z,41.83
2022-08-07T03:23:19.383Z,41.82
2022-08-07T03:26:24.769Z,41.79
2022-08-07T03:29:37.786Z,41.92
2022-08-07T03:32:49.122Z,41.44
2022-08-07T03:36:00.742Z,41.39
2022-08-07T03:39:15.329Z,41.45
2022-08-07T03:42:20.011Z,41.41
2022-08-07T03:45:30.969Z,41.48
2022-08-07T03:49:02.044Z,41.69
2022-08-07T03:52:22.810Z,41.35
2022-08-07T03:55:58.441Z,41.18
2022-08-07T03:59:09.384Z,41.07
2022-08-07T04:02:14.598Z,41.36
2022-08-07T04:05:20.563Z,41.45
2022-08-07T04:08:32.421Z,41.51
2022-08-07T04:12:15.529Z,41.75
2022-08-07T04:15:00.136Z,41.74
2022-08-07T04:18:56.633Z,41.30
2022-08-07T04:21:26.601Z,41.72
2022-08-07T04:24:39.263Z,41.37
2022-08-07T04:27:59.276Z,41.68
2022-08-07T04:31:03.253Z,41.68
2022-08-07T04:34:16.403Z,41.60
2022-08-07T04:37:20.533Z,41.82
2022-08-07T04:40:29.566Z,42.00
2022-08-07T04:44:12.475Z,42.01
2022-08-07T04:47:23.638Z,42.23
2022-08-07T04:51:20.833Z,41.69
2022-08-07T04:54:43.424Z,41.89
2022-08-07T04:58:31.399Z,41.88
2022-08-07T05:01:43.148Z,42.25
2022-08-07T05:05:02.757Z,41.78
2022-08-07T05:09:00.025Z,42.05
2022-08-07T05:12:06.622Z,41.78
2022-08-07T05:15:23.650Z,41.83
2022-08-07T05:18:32.096Z,41.73
2022-08-07T05:21:59.153Z,41.35
2022-08-07T05:25:00.426Z,41.59
2022-08-07T05:28:19.959Z,41.40
2022-08-07T05:31:35.082Z,41.44
2022-08-07T05:34:42.364Z,41.90
2022-08-07T05:37:46.015Z,42.03
2022-08-07T05:41:14.309Z,41.83
2022-08-07T05:44:29.301Z,41.57
2022-08-07T05:47:38.142Z,42.26
2022-08-07T05:50:59.336Z,42.46
2022-08-07T05:54:09.648Z,42.51
2022-08-07T05:57:30.366Z,42.81
2022-08-07T06:00:38.413Z,42.74
2022-08-07T06:03:58.854Z,43.02
2022-08-07T06:07:09.212Z,43.61
2022-08-07T06:10:26.765Z,43.56
2022-08-07T06:14:10.641Z,43.18
2022-08-07T06:16:56.480Z,43.11
2022-08-07T06:20:12.408Z,42.64
2022-08-07T06:24:37.935Z,42.49
2022-08-07T06:26:50.484Z,42.60
2022-08-07T06:29:52.941Z,42.35
2022-08-07T06:32:54.713Z,42.26
2022-08-07T06:36:13.351Z,42.05
2022-08-07T06:40:16.058Z,42.23
2022-08-07T06:42:53.231Z,43.04
2022-08-07T06:46:12.806Z,44.24
2022-08-07T06:49:15.310Z,43.49
2022-08-07T06:52:17.740Z,43.71
2022-08-07T06:55:54.003Z,43.61
2022-08-07T07:00:11.978Z,44.37
2022-08-07T07:02:54.513Z,44.26
2022-08-07T07:06:05.062Z,43.77
2022-08-07T07:09:26.670Z,43.53
2022-08-07T07:12:56.719Z,43.76
2022-08-07T07:16:05.185Z,44.21
2022-08-07T07:19:37.306Z,43.79
2022-08-07T07:22:35.931Z,44.13
2022-08-07T07:26:35.061Z,43.88
2022-08-07T07:29:39.822Z,43.77
2022-08-07T07:32:38.520Z,44.71
2022-08-07T07:36:03.925Z,45.90
2022-08-07T07:39:08.789Z,45.32
2022-08-07T07:42:13.975Z,45.46
2022-08-07T07:45:22.756Z,45.16
2022-08-07T07:48:46.514Z,45.78
2022-08-07T07:51:58.568Z,45.68
2022-08-07T07:55:03.390Z,45.35
2022-08-07T07:58:05.753Z,44.68
2022-08-07T08:02:03.684Z,44.54
2022-08-07T08:04:32.651Z,44.88
2022-08-07T08:07:42.517Z,45.05
2022-08-07T08:11:02.194Z,44.73
2022-08-07T08:14:05.363Z,43.91
2022-08-07T08:17:56.010Z,43.43
2022-08-07T08:20:34.110Z,43.14
2022-08-07T08:23:56.616Z,42.98
2022-08-07T08:27:10.355Z,42.17
2022-08-07T08:30:14.253Z,42.00
2022-08-07T08:33:22.021Z,41.50
2022-08-07T08:36:30.474Z,40.54
2022-08-07T08:39:39.708Z,40.70
2022-08-07T08:43:07.046Z,41.15
2022-08-07T08:46:20.506Z,40.21
2022-08-07T08:50:02.379Z,40.45
2022-08-07T08:53:20.262Z,40.12
2022-08-07T08:56:26.788Z,40.44
2022-08-07T08:59:48.024Z,40.01
2022-08-07T09:03:07.598Z,39.24
2022-08-07T09:06:31.373Z,38.85
2022-08-07T09:09:48.987Z,37.85
2022-08-07T09:13:16.313Z,37.38
2022-08-07T09:16:45.605Z,37.07
2022-08-07T09:20:34.715Z,36.90
2022-08-07T09:24:54.123Z,36.06
2022-08-07T09:27:59.753Z,36.63
2022-08-07T09:31:08.997Z,36.21
2022-08-07T09:34:16.573Z,35.33
2022-08-07T09:37:53.621Z,34.91
2022-08-07T09:41:27.746Z,34.82
2022-08-07T09:47:25.421Z,36.02
2022-08-07T09:50:04.018Z,33.63
2022-08-07T09:52:42.785Z,32.09
2022-08-07T09:56:15.041Z,31.12
2022-08-07T09:59:46.480Z,31.23
2022-08-07T10:04:07.084Z,30.98
2022-08-07T10:07:24.432Z,30.92
2022-08-07T10:11:07.701Z,30.88
2022-08-07T10:14:36.505Z,30.18
2022-08-07T10:18:00.702Z,30.27
2022-08-07T10:21:19.730Z,30.37
2022-08-07T10:24:48.140Z,29.54
2022-08-07T10:28:12.830Z,28.63
2022-08-07T10:31:39.138Z,29.13
2022-08-07T10:35:20.522Z,29.40
2022-08-07T10:38:42.120Z,28.58
2022-08-07T10:42:40.308Z,28.17
2022-08-07T10:46:17.946Z,28.58
2022-08-07T10:49:49.585Z,27.93
2022-08-07T10:53:08.078Z,27.23
2022-08-07T10:56:45.917Z,26.59
2022-08-07T11:00:36.620Z,27.09
2022-08-07T11:03:47.886Z,27.25
2022-08-07T11:07:59.629Z,27.20
2022-08-07T11:11:01.149Z,27.38
2022-08-07T11:14:44.973Z,27.14
2022-08-07T11:17:44.324Z,26.55
2022-08-07T11:21:15.181Z,25.87
2022-08-07T11:24:38.932Z,26.47
2022-08-07T11:28:19.897Z,25.89
2022-08-07T11:31:33.270Z,25.92
2022-08-07T11:35:11.897Z,25.82
2022-08-07T11:38:29.968Z,25.39
2022-08-07T11:42:01.795Z,25.44
2022-08-07T11:45:15.823Z,25.28
2022-08-07T11:49:27.402Z,25.90
2022-08-07T11:52:45.462Z,25.49
2022-08-07T11:56:27.144Z,25.46
2022-08-07T12:00:10.247Z,25.18
2022-08-07T12:03:50.822Z,25.39
2022-08-07T12:07:08.005Z,25.26
2022-08-07T12:10:37.415Z,25.67
2022-08-07T12:13:53.675Z,25.13
2022-08-07T12:17:01.349Z,24.85
2022-08-07T12:20:30.799Z,24.78
2022-08-07T12:24:38.347Z,24.40
2022-08-07T12:28:08.652Z,24.12
2022-08-07T12:31:22.412Z,24.10
2022-08-07T12:34:28.989Z,24.58
2022-08-07T12:38:10.353Z,24.46
2022-08-07T12:40:55.296Z,24.29
2022-08-07T12:44:03.769Z,24.25
2022-08-07T12:47:21.362Z,23.51
2022-08-07T12:50:39.286Z,22.92
2022-08-07T12:54:03.370Z,23.15
2022-08-07T12:57:25.098Z,23.73
2022-08-07T13:00:50.054Z,22.76
2022-08-07T13:04:34.113Z,23.30
2022-08-07T13:08:14.076Z,22.67
2022-08-07T13:12:02.973Z,22.22
2022-08-07T13:15:31.532Z,22.17
2022-08-07T13:18:44.612Z,21.79
2022-08-07T13:22:06.156Z,22.28
2022-08-07T13:25:31.801Z,22.74
2022-08-07T13:28:58.913Z,22.17
2022-08-07T13:32:15.277Z,22.38
2022-08-07T13:36:01.026Z,22.52
2022-08-07T13:40:34.313Z,22.83
2022-08-07T13:43:02.352Z,22.36
2022-08-07T13:46:10.993Z,22.65
2022-08-07T13:50:34.507Z,22.35
2022-08-07T13:53:00.345Z,22.92
2022-08-07T13:56:04.214Z,22.17
2022-08-07T13:59:12.280Z,22.75
2022-08-07T14:02:33.320Z,22.65
2022-08-07T14:05:44.182Z,22.37
2022-08-07T14:08:54.553Z,22.60
2022-08-07T14:12:07.397Z,22.25
2022-08-07T14:15:27.418Z,22.16
2022-08-07T14:18:45.783Z,22.26
2022-08-07T14:22:03.295Z,22.10
2022-08-07T14:25:15.732Z,21.85
2022-08-07T14:28:19.192Z,21.28
2022-08-07T14:31:24.883Z,21.43
2022-08-07T14:34:47.902Z,21.60
2022-08-07T14:38:03.541Z,21.86
2022-08-07T14:41:14.683Z,21.20
2022-08-07T14:44:18.843Z,21.10
2022-08-07T14:47:23.116Z,20.78
2022-08-07T14:50:28.930Z,20.88
2022-08-07T14:57:19.566Z,20.92
2022-08-07T15:03:53.518Z,20.12
2022-08-07T15:06:56.966Z,20.31
2022-08-07T15:13:25.466Z,20.43
2022-08-07T15:16:41.596Z,20.97
2022-08-07T15:20:32.429Z,21.06
2022-08-07T15:27:10.439Z,20.80
2022-08-07T15:30:16.853Z,21.03
2022-08-07T15:33:22.018Z,20.66
2022-08-07T15:37:04.211Z,20.82
2022-08-07T15:43:53.097Z,19.68
2022-08-07T15:47:09.033Z,20.44
2022-08-07T15:51:01.444Z,20.57
2022-08-07T15:53:52.707Z,20.86
2022-08-07T15:56:59.714Z,21.00
2022-08-07T16:00:04.087Z,20.92
2022-08-07T16:03:46.360Z,20.59
2022-08-07T16:06:56.492Z,20.15
2022-08-07T16:10:24.904Z,20.72
2022-08-07T16:13:57.469Z,20.13
2022-08-07T16:18:01.448Z,19.96
2022-08-07T16:22:02.260Z,20.66
2022-08-07T16:24:52.629Z,20.62
2022-08-07T16:30:08.898Z,20.47
2022-08-07T16:32:07.125Z,20.74
2022-08-07T16:35:58.629Z,20.63
2022-08-07T16:39:20.932Z,21.20
2022-08-07T16:43:03.679Z,21.90
2022-08-07T16:50:27.838Z,21.84
2022-08-07T16:54:01.382Z,22.63
2022-08-07T16:57:15.299Z,22.34
2022-08-07T17:00:29.633Z,22.54
2022-08-07T17:04:00.109Z,22.67
2022-08-07T17:07:51.327Z,22.71
2022-08-07T17:10:55.603Z,22.74
2022-08-07T17:14:19.049Z,23.05
2022-08-07T17:17:46.525Z,22.91
2022-08-07T17:20:49.548Z,23.12
2022-08-07T17:24:27.624Z,23.50
2022-08-07T17:27:50.772Z,23.68
2022-08-07T17:31:00.277Z,23.46
2022-08-07T17:35:40.184Z,23.90
2022-08-07T17:38:33.878Z,23.89
2022-08-07T17:42:02.065Z,23.88
2022-08-07T17:45:14.762Z,23.98
2022-08-07T17:48:31.098Z,23.95
2022-08-07T17:51:59.680Z,24.28
2022-08-07T17:55:07.775Z,24.34
2022-08-07T17:58:30.864Z,23.80
2022-08-07T18:02:03.949Z,24.24
2022-08-07T18:05:21.752Z,23.91
2022-08-07T18:08:31.184Z,24.38
2022-08-07T18:12:07.105Z,24.72
2022-08-07T18:15:22.520Z,24.66
2022-08-07T18:18:46.955Z,24.90
2022-08-07T18:22:06.345Z,24.82
2022-08-07T18:25:19.041Z,24.88
2022-08-07T18:28:58.442Z,24.89
2022-08-07T18:32:24.621Z,25.06
2022-08-07T18:35:55.718Z,25.09
2022-08-07T18:40:06.708Z,25.37
2022-08-07T18:43:06.270Z,25.29
2022-08-07T18:46:27.046Z,25.48
2022-08-07T18:50:33.150Z,25.68
2022-08-07T18:53:55.757Z,25.90
2022-08-07T18:57:40.094Z,26.03
2022-08-07T19:00:54.423Z,26.06
2022-08-07T19:04:54.583Z,26.21
2022-08-07T19:08:05.679Z,26.70
2022-08-07T19:11:36.559Z,26.64
2022-08-07T19:14:58.377Z,26.95
2022-08-07T19:18:34.136Z,27.25
2022-08-07T19:22:04.029Z,27.48
2022-08-07T19:26:22.998Z,27.46
2022-08-07T19:30:56.548Z,27.91
2022-08-07T19:32:17.930Z,28.06
2022-08-07T19:35:28.203Z,28.31
2022-08-07T19:38:53.393Z,28.56
2022-08-07T19:42:08.536Z,28.66
2022-08-07T19:46:01.090Z,28.59
2022-08-07T19:48:53.693Z,29.24
2022-08-07T19:52:00.616Z,29.41
2022-08-07T19:55:03.136Z,29.47
2022-08-07T19:58:13.718Z,29.20
2022-08-07T20:01:18.231Z,29.30
2022-08-07T20:04:37.703Z,29.83
2022-08-07T20:07:47.825Z,30.20
2022-08-07T20:10:55.992Z,29.89
2022-08-07T20:13:59.809Z,30.30
2022-08-07T20:17:05.901Z,30.43
2022-08-07T20:20:08.583Z,30.92
2022-08-07T20:23:32.790Z,30.62
2022-08-07T20:26:45.156Z,31.27
2022-08-07T20:30:01.969Z,31.42
2022-08-07T20:33:36.969Z,31.58
2022-08-07T20:36:33.850Z,31.70
2022-08-07T20:40:02.652Z,31.65
2022-08-07T20:43:01.017Z,32.29
2022-08-07T20:46:28.787Z,32.43
2022-08-07T20:49:59.635Z,32.61
2022-08-07T20:52:51.409Z,32.79
2022-08-07T20:55:57.512Z,32.90
2022-08-07T20:59:06.040Z,32.96
2022-08-07T21:02:53.920Z,33.11
2022-08-07T21:06:21.394Z,33.15
2022-08-07T21:09:35.458Z,33.16
2022-08-07T21:12:56.648Z,33.78
2022-08-07T21:16:01.848Z,33.53
2022-08-07T21:19:03.935Z,33.78
2022-08-07T21:22:10.679Z,33.55
2022-08-07T21:25:29.559Z,33.46
2022-08-07T21:28:54.983Z,33.21
2022-08-07T21:32:47.505Z,33.06
2022-08-07T21:35:34.950Z,32.90
2022-08-07T21:39:45.192Z,33.35
2022-08-07T21:43:10.804Z,33.11
2022-08-07T21:46:31.265Z,33.07
2022-08-07T21:50:02.195Z,33.50
2022-08-07T21:53:24.066Z,33.56
2022-08-07T21:56:47.844Z,33.62
2022-08-07T22:00:23.082Z,34.10
2022-08-07T22:03:37.390Z,34.12
2022-08-07T22:06:49.659Z,33.97
2022-08-07T22:09:55.894Z,34.16
2022-08-07T22:12:59.959Z,34.24
2022-08-07T22:16:42.992Z,34.50
2022-08-07T22:19:40.165Z,34.72
2022-08-07T22:22:47.486Z,34.61
2022-08-07T22:25:59.474Z,35.10
2022-08-07T22:29:13.974Z,35.16
2022-08-07T22:32:26.376Z,35.25
2022-08-07T22:35:39.431Z,35.64
2022-08-07T22:39:01.773Z,35.29
2022-08-07T22:42:19.664Z,35.70
2022-08-07T22:46:21.435Z,36.07
2022-08-07T22:49:37.801Z,35.83
2022-08-07T22:53:01.284Z,35.90
2022-08-07T22:56:08.549Z,36.08
2022-08-07T22:59:37.988Z,36.51
2022-08-07T23:02:58.467Z,37.14
2022-08-07T23:06:23.963Z,37.22
2022-08-07T23:10:05.190Z,36.79
2022-08-07T23:13:19.331Z,37.56
2022-08-07T23:16:48.349Z,38.31
2022-08-07T23:20:51.157Z,38.85
2022-08-07T23:24:16.879Z,38.45
2022-08-07T23:28:21.791Z,39.53
2022-08-07T23:31:42.885Z,38.81
2022-08-07T23:35:13.044Z,39.56
2022-08-07T23:38:42.724Z,40.17
2022-08-07T23:42:21.410Z,39.51
2022-08-07T23:46:03.072Z,40.25
2022-08-07T23:49:17.488Z,40.18
2022-08-07T23:53:05.572Z,40.99
2022-08-07T23:56:20.829Z,40.97
